sensor_id;sensor_type;location;lat;lon;timestamp;pressure;altitude;pressure_sealevel;temperature;humidity
3796;BME280;1913;50.660;7.834;2023-05-20T00:00:20;150745.44;;;10.94;100.00
3796;BME280;1913;50.660;7.834;2023-05-20T00:02:45;150736.63;;;10.91;100.00
3796;BME280;1913;50.660;7.834;2023-05-20T00:05:10;150730.34;;;10.88;100.00
3796;BME280;1913;50.660;7.834;2023-05-20T00:07:36;150721.53;;;10.85;100.00
3796;BME280;1913;50.660;7.834;2023-05-20T00:10:01;150747.94;;;10.95;100.00
3796;BME280;1913;50.660;7.834;2023-05-20T00:12:26;150737.88;;;10.91;100.00
3796;BME280;1913;50.660;7.834;2023-05-20T00:14:52;150741.69;;;10.93;100.00
3796;BME280;1913;50.660;7.834;2023-05-20T00:17:18;150725.34;;;10.86;100.00
3796;BME280;1913;50.660;7.834;2023-05-20T00:19:46;150722.84;;;10.85;100.00
3796;BME280;1913;50.660;7.834;2023-05-20T00:22:12;150711.50;;;10.81;100.00
3796;BME280;1913;50.660;7.834;2023-05-20T00:24:37;150711.50;;;10.81;100.00
3796;BME280;1913;50.660;7.834;2023-05-20T00:27:02;150705.25;;;10.78;100.00
3796;BME280;1913;50.660;7.834;2023-05-20T00:29:28;150697.69;;;10.75;100.00
3796;BME280;1913;50.660;7.834;2023-05-20T00:31:54;150685.09;;;10.70;100.00
3796;BME280;1913;50.660;7.834;2023-05-20T00:34:20;150687.66;;;10.71;100.00
3796;BME280;1913;50.660;7.834;2023-05-20T00:36:45;150695.16;;;10.74;100.00
3796;BME280;1913;50.660;7.834;2023-05-20T00:39:11;150695.16;;;10.74;100.00
3796;BME280;1913;50.660;7.834;2023-05-20T00:41:36;150697.69;;;10.75;100.00
3796;BME280;1913;50.660;7.834;2023-05-20T00:44:03;150677.56;;;10.67;100.00
3796;BME280;1913;50.660;7.834;2023-05-20T00:46:28;150666.28;;;10.62;100.00
3796;BME280;1913;50.660;7.834;2023-05-20T00:48:54;150676.31;;;10.66;100.00
3796;BME280;1913;50.660;7.834;2023-05-20T00:51:20;150665.00;;;10.62;100.00
3796;BME280;1913;50.660;7.834;2023-05-20T00:53:46;150636.13;;;10.50;100.00
3796;BME280;1913;50.660;7.834;2023-05-20T00:56:13;150649.91;;;10.55;100.00
3796;BME280;1913;50.660;7.834;2023-05-20T00:58:39;150639.88;;;10.51;100.00
3796;BME280;1913;50.660;7.834;2023-05-20T01:01:05;150616.00;;;10.42;100.00
3796;BME280;1913;50.660;7.834;2023-05-20T01:03:30;150614.75;;;10.41;100.00
3796;BME280;1913;50.660;7.834;2023-05-20T01:05:56;150594.66;;;10.33;100.00
3796;BME280;1913;50.660;7.834;2023-05-20T01:08:23;150579.56;;;10.27;100.00
3796;BME280;1913;50.660;7.834;2023-05-20T01:11:03;150549.38;;;10.15;100.00
3796;BME280;1913;50.660;7.834;2023-05-20T01:13:34;150515.47;;;10.01;100.00
3796;BME280;1913;50.660;7.834;2023-05-20T01:16:02;150511.69;;;9.99;100.00
3796;BME280;1913;50.660;7.834;2023-05-20T01:18:29;150534.31;;;10.08;100.00
3796;BME280;1913;50.660;7.834;2023-05-20T01:20:58;150540.59;;;10.11;100.00
3796;BME280;1913;50.660;7.834;2023-05-20T01:23:36;150555.63;;;10.17;100.00
3796;BME280;1913;50.660;7.834;2023-05-20T01:26:03;150544.34;;;10.13;100.00
3796;BME280;1913;50.660;7.834;2023-05-20T01:28:31;150559.44;;;10.19;100.00
3796;BME280;1913;50.660;7.834;2023-05-20T01:30:58;150570.72;;;10.23;100.00
3796;BME280;1913;50.660;7.834;2023-05-20T01:33:28;150579.56;;;10.27;100.00
3796;BME280;1913;50.660;7.834;2023-05-20T01:35:54;150583.38;;;10.28;100.00
3796;BME280;1913;50.660;7.834;2023-05-20T01:38:22;150593.41;;;10.33;100.00
3796;BME280;1913;50.660;7.834;2023-05-20T01:40:48;150584.63;;;10.29;100.00
3796;BME280;1913;50.660;7.834;2023-05-20T01:43:15;150602.19;;;10.36;100.00
3796;BME280;1913;50.660;7.834;2023-05-20T01:45:41;150599.66;;;10.35;100.00
3796;BME280;1913;50.660;7.834;2023-05-20T01:48:09;150603.44;;;10.37;100.00
3796;BME280;1913;50.660;7.834;2023-05-20T01:50:36;150595.91;;;10.34;100.00
3796;BME280;1913;50.660;7.834;2023-05-20T01:53:01;150597.16;;;10.34;100.00
3796;BME280;1913;50.660;7.834;2023-05-20T01:55:27;150599.66;;;10.35;100.00
3796;BME280;1913;50.660;7.834;2023-05-20T01:57:52;150589.59;;;10.31;100.00
3796;BME280;1913;50.660;7.834;2023-05-20T02:00:18;150603.44;;;10.37;100.00
3796;BME280;1913;50.660;7.834;2023-05-20T02:02:43;150585.88;;;10.29;100.00
3796;BME280;1913;50.660;7.834;2023-05-20T02:05:09;150585.88;;;10.29;100.00
3796;BME280;1913;50.660;7.834;2023-05-20T02:07:34;150589.59;;;10.31;100.00
3796;BME280;1913;50.660;7.834;2023-05-20T02:10:00;150605.94;;;10.38;100.00
3796;BME280;1913;50.660;7.834;2023-05-20T02:12:25;150607.19;;;10.38;100.00
3796;BME280;1913;50.660;7.834;2023-05-20T02:14:51;150617.25;;;10.42;100.00
3796;BME280;1913;50.660;7.834;2023-05-20T02:17:17;150612.25;;;10.40;100.00
3796;BME280;1913;50.660;7.834;2023-05-20T02:19:43;150608.44;;;10.39;100.00
3796;BME280;1913;50.660;7.834;2023-05-20T02:22:09;150603.44;;;10.37;100.00
3796;BME280;1913;50.660;7.834;2023-05-20T02:24:34;150608.44;;;10.39;100.00
3796;BME280;1913;50.660;7.834;2023-05-20T02:26:59;150604.69;;;10.37;100.00
3796;BME280;1913;50.660;7.834;2023-05-20T02:29:25;150608.44;;;10.39;100.00
3796;BME280;1913;50.660;7.834;2023-05-20T02:31:51;150609.75;;;10.39;100.00
3796;BME280;1913;50.660;7.834;2023-05-20T02:34:17;150622.28;;;10.44;100.00
3796;BME280;1913;50.660;7.834;2023-05-20T02:36:43;150617.25;;;10.42;100.00
3796;BME280;1913;50.660;7.834;2023-05-20T02:39:08;150613.50;;;10.41;100.00
3796;BME280;1913;50.660;7.834;2023-05-20T02:41:34;150611.00;;;10.40;100.00
3796;BME280;1913;50.660;7.834;2023-05-20T02:43:59;150627.34;;;10.46;100.00
3796;BME280;1913;50.660;7.834;2023-05-20T02:46:25;150623.53;;;10.45;100.00
3796;BME280;1913;50.660;7.834;2023-05-20T02:48:50;150633.59;;;10.49;100.00
3796;BME280;1913;50.660;7.834;2023-05-20T02:51:15;150658.72;;;10.59;100.00
3796;BME280;1913;50.660;7.834;2023-05-20T02:53:41;150647.44;;;10.54;100.00
3796;BME280;1913;50.660;7.834;2023-05-20T02:56:06;150683.84;;;10.69;100.00
3796;BME280;1913;50.660;7.834;2023-05-20T02:58:33;150691.41;;;10.72;100.00
3796;BME280;1913;50.660;7.834;2023-05-20T03:01:00;150710.25;;;10.80;100.00
3796;BME280;1913;50.660;7.834;2023-05-20T03:03:25;150732.88;;;10.89;100.00
3796;BME280;1913;50.660;7.834;2023-05-20T03:05:51;150765.53;;;11.02;100.00
3796;BME280;1913;50.660;7.834;2023-05-20T03:08:18;150780.63;;;11.09;100.00
3796;BME280;1913;50.660;7.834;2023-05-20T03:10:44;150791.94;;;11.13;100.00
3796;BME280;1913;50.660;7.834;2023-05-20T03:13:09;150819.63;;;11.24;100.00
3796;BME280;1913;50.660;7.834;2023-05-20T03:15:40;150833.44;;;11.30;100.00
3796;BME280;1913;50.660;7.834;2023-05-20T03:18:05;150830.94;;;11.29;100.00
3796;BME280;1913;50.660;7.834;2023-05-20T03:20:33;150843.47;;;11.34;100.00
3796;BME280;1913;50.660;7.834;2023-05-20T03:23:05;150853.53;;;11.38;100.00
3796;BME280;1913;50.660;7.834;2023-05-20T03:25:35;150858.56;;;11.40;100.00
3796;BME280;1913;50.660;7.834;2023-05-20T03:28:01;150858.56;;;11.40;100.00
3796;BME280;1913;50.660;7.834;2023-05-20T03:30:26;150859.81;;;11.41;100.00
3796;BME280;1913;50.660;7.834;2023-05-20T03:32:53;150866.13;;;11.43;100.00
3796;BME280;1913;50.660;7.834;2023-05-20T03:35:18;150861.06;;;11.41;100.00
3796;BME280;1913;50.660;7.834;2023-05-20T03:37:44;150863.63;;;11.42;100.00
3796;BME280;1913;50.660;7.834;2023-05-20T03:40:09;150883.72;;;11.50;100.00
3796;BME280;1913;50.660;7.834;2023-05-20T03:42:36;150879.94;;;11.49;100.00
3796;BME280;1913;50.660;7.834;2023-05-20T03:45:01;150864.88;;;11.43;100.00
3796;BME280;1913;50.660;7.834;2023-05-20T03:47:27;150878.69;;;11.48;100.00
3796;BME280;1913;50.660;7.834;2023-05-20T03:49:53;150873.69;;;11.46;100.00
3796;BME280;1913;50.660;7.834;2023-05-20T03:52:19;150867.38;;;11.44;100.00
3796;BME280;1913;50.660;7.834;2023-05-20T03:54:44;150869.88;;;11.45;100.00
3796;BME280;1913;50.660;7.834;2023-05-20T03:57:09;150886.22;;;11.51;100.00
3796;BME280;1913;50.660;7.834;2023-05-20T03:59:36;150874.94;;;11.47;100.00
3796;BME280;1913;50.660;7.834;2023-05-20T04:02:02;150884.97;;;11.51;100.00
3796;BME280;1913;50.660;7.834;2023-05-20T04:04:27;150869.88;;;11.45;100.00
3796;BME280;1913;50.660;7.834;2023-05-20T04:06:53;150877.44;;;11.48;100.00
3796;BME280;1913;50.660;7.834;2023-05-20T04:09:19;150877.44;;;11.48;100.00
3796;BME280;1913;50.660;7.834;2023-05-20T04:11:44;150871.13;;;11.45;100.00
3796;BME280;1913;50.660;7.834;2023-05-20T04:14:10;150871.13;;;11.45;100.00
3796;BME280;1913;50.660;7.834;2023-05-20T04:16:36;150842.22;;;11.34;100.00
3796;BME280;1913;50.660;7.834;2023-05-20T04:19:02;150847.28;;;11.36;100.00
3796;BME280;1913;50.660;7.834;2023-05-20T04:21:28;150862.34;;;11.42;100.00
3796;BME280;1913;50.660;7.834;2023-05-20T04:23:53;150849.78;;;11.37;100.00
3796;BME280;1913;50.660;7.834;2023-05-20T04:26:18;150820.88;;;11.25;100.00
3796;BME280;1913;50.660;7.834;2023-05-20T04:28:45;150817.06;;;11.23;100.00
3796;BME280;1913;50.660;7.834;2023-05-20T04:31:13;150807.03;;;11.19;100.00
3796;BME280;1913;50.660;7.834;2023-05-20T04:33:38;150798.22;;;11.16;100.00
3796;BME280;1913;50.660;7.834;2023-05-20T04:36:05;150796.97;;;11.15;100.00
3796;BME280;1913;50.660;7.834;2023-05-20T04:38:31;150832.19;;;11.30;100.00
3796;BME280;1913;50.660;7.834;2023-05-20T04:40:59;150857.31;;;11.40;100.00
3796;BME280;1913;50.660;7.834;2023-05-20T04:43:26;150871.13;;;11.45;100.00
3796;BME280;1913;50.660;7.834;2023-05-20T04:45:57;150863.63;;;11.42;100.00
3796;BME280;1913;50.660;7.834;2023-05-20T04:48:24;150902.59;;;11.58;100.00
3796;BME280;1913;50.660;7.834;2023-05-20T04:50:50;150924.00;;;11.67;100.00
3796;BME280;1913;50.660;7.834;2023-05-20T04:53:19;150942.84;;;11.74;100.00
3796;BME280;1913;50.660;7.834;2023-05-20T04:55:46;150944.09;;;11.75;100.00
3796;BME280;1913;50.660;7.834;2023-05-20T04:58:12;150990.66;;;11.94;100.00
3796;BME280;1913;50.660;7.834;2023-05-20T05:00:42;150956.66;;;11.80;100.00
3796;BME280;1913;50.660;7.834;2023-05-20T05:03:08;150976.84;;;11.88;100.00
3796;BME280;1913;50.660;7.834;2023-05-20T05:05:37;150971.81;;;11.86;100.00
3796;BME280;1913;50.660;7.834;2023-05-20T05:08:04;150988.16;;;11.93;100.00
3796;BME280;1913;50.660;7.834;2023-05-20T05:10:30;150996.97;;;11.96;100.00
3796;BME280;1913;50.660;7.834;2023-05-20T05:12:56;150971.81;;;11.86;100.00
3796;BME280;1913;50.660;7.834;2023-05-20T05:15:21;150979.34;;;11.89;100.00
3796;BME280;1913;50.660;7.834;2023-05-20T05:17:47;150964.19;;;11.83;100.00
3796;BME280;1913;50.660;7.834;2023-05-20T05:20:12;150979.34;;;11.89;100.00
3796;BME280;1913;50.660;7.834;2023-05-20T05:22:37;150983.09;;;11.91;100.00
3796;BME280;1913;50.660;7.834;2023-05-20T05:25:06;151009.50;;;12.02;100.00
3796;BME280;1913;50.660;7.834;2023-05-20T05:27:31;151017.06;;;12.05;100.00
3796;BME280;1913;50.660;7.834;2023-05-20T05:29:57;151020.88;;;12.06;100.00
3796;BME280;1913;50.660;7.834;2023-05-20T05:32:22;151030.94;;;12.10;100.00
3796;BME280;1913;50.660;7.834;2023-05-20T05:34:48;151072.41;;;12.27;100.00
3796;BME280;1913;50.660;7.834;2023-05-20T05:37:13;151056.09;;;12.20;100.00
3796;BME280;1913;50.660;7.834;2023-05-20T05:39:39;151038.47;;;12.13;100.00
3796;BME280;1913;50.660;7.834;2023-05-20T05:42:05;151082.50;;;12.31;100.00
3796;BME280;1913;50.660;7.834;2023-05-20T05:44:30;151074.97;;;12.28;100.00
3796;BME280;1913;50.660;7.834;2023-05-20T05:46:56;151091.31;;;12.35;100.00
3796;BME280;1913;50.660;7.834;2023-05-20T05:49:21;151155.47;;;12.61;100.00
3796;BME280;1913;50.660;7.834;2023-05-20T05:51:46;151180.63;;;12.71;100.00
3796;BME280;1913;50.660;7.834;2023-05-20T05:54:12;151188.19;;;12.74;100.00
3796;BME280;1913;50.660;7.834;2023-05-20T05:56:38;151191.94;;;12.76;100.00
3796;BME280;1913;50.660;7.834;2023-05-20T05:59:04;151263.69;;;13.05;100.00
3796;BME280;1913;50.660;7.834;2023-05-20T06:01:29;151241.06;;;12.96;100.00
3796;BME280;1913;50.660;7.834;2023-05-20T06:03:55;151247.31;;;12.98;100.00
3796;BME280;1913;50.660;7.834;2023-05-20T06:06:20;151231.00;;;12.91;100.00
3796;BME280;1913;50.660;7.834;2023-05-20T06:08:46;151264.94;;;13.05;100.00
3796;BME280;1913;50.660;7.834;2023-05-20T06:11:12;151264.94;;;13.05;100.00
3796;BME280;1913;50.660;7.834;2023-05-20T06:13:37;151290.09;;;13.15;100.00
3796;BME280;1913;50.660;7.834;2023-05-20T06:16:03;151327.97;;;13.31;100.00
3796;BME280;1913;50.660;7.834;2023-05-20T06:18:28;151295.16;;;13.17;100.00
3796;BME280;1913;50.660;7.834;2023-05-20T06:20:55;151259.91;;;13.03;100.00
3796;BME280;1913;50.660;7.834;2023-05-20T06:23:21;151266.22;;;13.06;100.00
3796;BME280;1913;50.660;7.834;2023-05-20T06:25:46;151280.03;;;13.11;100.00
3796;BME280;1913;50.660;7.834;2023-05-20T06:28:12;151311.59;;;13.24;100.00
3796;BME280;1913;50.660;7.834;2023-05-20T06:30:39;151341.78;;;13.36;100.00
3796;BME280;1913;50.660;7.834;2023-05-20T06:33:04;151366.97;;;13.47;100.00
3796;BME280;1913;50.660;7.834;2023-05-20T06:35:30;151344.28;;;13.37;100.00
3796;BME280;1913;50.660;7.834;2023-05-20T06:37:56;151427.41;;;13.71;100.00
3796;BME280;1913;50.660;7.834;2023-05-20T06:40:21;151452.59;;;13.81;100.00
3796;BME280;1913;50.660;7.834;2023-05-20T06:42:47;151466.41;;;13.87;100.00
3796;BME280;1913;50.660;7.834;2023-05-20T06:45:13;151531.94;;;14.13;100.00
3796;BME280;1913;50.660;7.834;2023-05-20T06:47:38;151599.97;;;14.41;100.00
3796;BME280;1913;50.660;7.834;2023-05-20T06:50:04;151639.03;;;14.57;100.00
3796;BME280;1913;50.660;7.834;2023-05-20T06:52:29;151602.47;;;14.42;100.00
3796;BME280;1913;50.660;7.834;2023-05-20T06:54:55;151613.78;;;14.47;100.00
3796;BME280;1913;50.660;7.834;2023-05-20T06:57:20;151656.69;;;14.64;100.00
3796;BME280;1913;50.660;7.834;2023-05-20T06:59:49;151670.56;;;14.70;100.00
3796;BME280;1913;50.660;7.834;2023-05-20T07:02:15;151639.03;;;14.57;100.00
3796;BME280;1913;50.660;7.834;2023-05-20T07:04:40;151666.75;;;14.68;100.00
3796;BME280;1913;50.660;7.834;2023-05-20T07:07:05;151724.75;;;14.92;100.00
3796;BME280;1913;50.660;7.834;2023-05-20T07:09:31;151663.00;;;14.67;100.00
3796;BME280;1913;50.660;7.834;2023-05-20T07:11:56;151714.66;;;14.88;100.00
3796;BME280;1913;50.660;7.834;2023-05-20T07:14:21;151768.84;;;15.09;100.00
3796;BME280;1913;50.660;7.834;2023-05-20T07:16:47;151820.53;;;15.30;100.00
3796;BME280;1913;50.660;7.834;2023-05-20T07:19:12;151847.00;;;15.41;100.00
3796;BME280;1913;50.660;7.834;2023-05-20T07:21:38;151784.00;;;15.16;100.00
3796;BME280;1913;50.660;7.834;2023-05-20T07:24:03;151872.22;;;15.51;100.00
3796;BME280;1913;50.660;7.834;2023-05-20T07:26:28;151839.44;;;15.38;100.00
3796;BME280;1913;50.660;7.834;2023-05-20T07:28:57;151879.75;;;15.54;100.00
3796;BME280;1913;50.660;7.834;2023-05-20T07:31:23;151932.78;;;15.76;100.00
3796;BME280;1913;50.660;7.834;2023-05-20T07:33:48;151910.06;;;15.67;100.00
3796;BME280;1913;50.660;7.834;2023-05-20T07:36:14;151983.19;;;15.96;100.00
3796;BME280;1913;50.660;7.834;2023-05-20T07:38:39;151970.59;;;15.91;100.00
3796;BME280;1913;50.660;7.834;2023-05-20T07:41:05;152021.06;;;16.12;100.00
3796;BME280;1913;50.660;7.834;2023-05-20T07:43:31;152050.06;;;16.23;100.00
3796;BME280;1913;50.660;7.834;2023-05-20T07:45:56;151946.63;;;15.82;100.00
3796;BME280;1913;50.660;7.834;2023-05-20T07:48:21;151904.97;;;15.65;100.00
3796;BME280;1913;50.660;7.834;2023-05-20T07:50:47;151916.41;;;15.69;100.00
3796;BME280;1913;50.660;7.834;2023-05-20T07:53:12;151951.69;;;15.84;100.00
3796;BME280;1913;50.660;7.834;2023-05-20T07:55:38;151998.34;;;16.02;100.00
3796;BME280;1913;50.660;7.834;2023-05-20T07:58:04;152018.50;;;16.11;100.00
3796;BME280;1913;50.660;7.834;2023-05-20T08:00:29;151987.00;;;15.98;100.00
3796;BME280;1913;50.660;7.834;2023-05-20T08:02:55;152019.75;;;16.11;100.00
3796;BME280;1913;50.660;7.834;2023-05-20T08:05:20;152076.53;;;16.34;100.00
3796;BME280;1913;50.660;7.834;2023-05-20T08:07:46;152120.69;;;16.52;100.00
3796;BME280;1913;50.660;7.834;2023-05-20T08:10:12;152071.47;;;16.32;100.00
3796;BME280;1913;50.660;7.834;2023-05-20T08:12:37;152024.81;;;16.13;100.00
3796;BME280;1913;50.660;7.834;2023-05-20T08:15:04;151999.59;;;16.03;100.00
3796;BME280;1913;50.660;7.834;2023-05-20T08:17:29;152047.53;;;16.22;100.00
3796;BME280;1913;50.660;7.834;2023-05-20T08:19:55;152108.03;;;16.47;100.00
3796;BME280;1913;50.660;7.834;2023-05-20T08:22:20;152139.59;;;16.60;100.00
3796;BME280;1913;50.660;7.834;2023-05-20T08:24:46;152061.38;;;16.28;100.00
3796;BME280;1913;50.660;7.834;2023-05-20T08:27:11;152127.00;;;16.55;100.00
3796;BME280;1913;50.660;7.834;2023-05-20T08:29:37;152022.31;;;16.12;100.00
3796;BME280;1913;50.660;7.834;2023-05-20T08:32:02;152037.41;;;16.18;100.00
3796;BME280;1913;50.660;7.834;2023-05-20T08:34:27;152043.72;;;16.21;100.00
3796;BME280;1913;50.660;7.834;2023-05-20T08:36:53;152032.38;;;16.16;100.00
3796;BME280;1913;50.660;7.834;2023-05-20T08:39:18;151969.34;;;15.91;100.00
3796;BME280;1913;50.660;7.834;2023-05-20T08:41:45;152010.94;;;16.08;100.00
3796;BME280;1913;50.660;7.834;2023-05-20T08:44:11;151961.78;;;15.88;100.00
3796;BME280;1913;50.660;7.834;2023-05-20T08:46:37;152014.75;;;16.09;100.00
3796;BME280;1913;50.660;7.834;2023-05-20T08:49:03;152005.91;;;16.06;100.00
3796;BME280;1913;50.660;7.834;2023-05-20T08:51:31;152057.63;;;16.26;100.00
3796;BME280;1913;50.660;7.834;2023-05-20T08:53:58;152023.56;;;16.13;100.00
3796;BME280;1913;50.660;7.834;2023-05-20T08:56:25;152052.56;;;16.24;100.00
3796;BME280;1913;50.660;7.834;2023-05-20T08:58:51;152082.84;;;16.37;100.00
3796;BME280;1913;50.660;7.834;2023-05-20T09:01:18;152133.28;;;16.57;100.00
3796;BME280;1913;50.660;7.834;2023-05-20T09:03:43;152253.19;;;17.06;100.00
3796;BME280;1913;50.660;7.834;2023-05-20T09:06:09;152303.69;;;17.26;100.00
3796;BME280;1913;50.660;7.834;2023-05-20T09:08:34;152335.22;;;17.39;100.00
3796;BME280;1913;50.660;7.834;2023-05-20T09:11:00;152558.75;;;18.29;100.00
3796;BME280;1913;50.660;7.834;2023-05-20T09:13:26;152643.34;;;18.63;100.00
3796;BME280;1913;50.660;7.834;2023-05-20T09:15:53;152595.38;;;18.44;96.91
3796;BME280;1913;50.660;7.834;2023-05-20T09:18:19;152720.47;;;18.95;94.77
3796;BME280;1913;50.660;7.834;2023-05-20T09:20:47;152850.63;;;19.47;94.24
3796;BME280;1913;50.660;7.834;2023-05-20T09:23:18;152997.28;;;20.06;89.67
3796;BME280;1913;50.660;7.834;2023-05-20T09:25:43;153018.75;;;20.15;79.48
3796;BME280;1913;50.660;7.834;2023-05-20T09:28:09;153151.56;;;20.69;73.31
3796;BME280;1913;50.660;7.834;2023-05-20T09:30:36;153217.38;;;20.95;67.79
3796;BME280;1913;50.660;7.834;2023-05-20T09:33:03;153011.16;;;20.12;71.87
3796;BME280;1913;50.660;7.834;2023-05-20T09:35:29;152899.91;;;19.67;80.99
3796;BME280;1913;50.660;7.834;2023-05-20T09:37:56;152652.19;;;18.67;89.52
3796;BME280;1913;50.660;7.834;2023-05-20T09:40:26;152496.88;;;18.04;94.75
3796;BME280;1913;50.660;7.834;2023-05-20T09:43:02;152438.78;;;17.81;98.98
3796;BME280;1913;50.660;7.834;2023-05-20T09:45:27;152429.94;;;17.77;100.00
3796;BME280;1913;50.660;7.834;2023-05-20T09:47:54;152422.31;;;17.74;97.77
3796;BME280;1913;50.660;7.834;2023-05-20T09:50:21;152537.25;;;18.21;98.54
3796;BME280;1913;50.660;7.834;2023-05-20T09:52:48;152493.06;;;18.03;98.36
3796;BME280;1913;50.660;7.834;2023-05-20T09:55:16;152514.56;;;18.11;96.43
3796;BME280;1913;50.660;7.834;2023-05-20T09:57:42;152510.75;;;18.10;99.17
3796;BME280;1913;50.660;7.834;2023-05-20T10:00:08;152456.47;;;17.88;100.00
3796;BME280;1913;50.660;7.834;2023-05-20T10:02:34;152345.31;;;17.43;100.00
3796;BME280;1913;50.660;7.834;2023-05-20T10:05:04;152392.03;;;17.62;100.00
3796;BME280;1913;50.660;7.834;2023-05-20T10:10:28;152481.72;;;17.98;100.00
3796;BME280;1913;50.660;7.834;2023-05-20T10:20:50;152462.78;;;17.90;98.72
3796;BME280;1913;50.660;7.834;2023-05-20T10:23:22;152350.38;;;17.45;100.00
3796;BME280;1913;50.660;7.834;2023-05-20T10:25:53;152495.63;;;18.04;100.00
3796;BME280;1913;50.660;7.834;2023-05-20T10:28:28;152539.81;;;18.22;98.70
3796;BME280;1913;50.660;7.834;2023-05-20T10:30:55;152580.19;;;18.38;97.75
3796;BME280;1913;50.660;7.834;2023-05-20T10:33:20;152861.97;;;19.52;95.04
3796;BME280;1913;50.660;7.834;2023-05-20T10:35:48;152902.47;;;19.68;88.60
3796;BME280;1913;50.660;7.834;2023-05-20T10:38:14;152836.69;;;19.42;83.27
3796;BME280;1913;50.660;7.834;2023-05-20T10:40:40;152702.78;;;18.87;88.70
3796;BME280;1913;50.660;7.834;2023-05-20T10:45:50;152656.00;;;18.69;90.82
3796;BME280;1913;50.660;7.834;2023-05-20T10:48:31;152536.00;;;18.20;97.93
3796;BME280;1913;50.660;7.834;2023-05-20T10:51:01;152624.41;;;18.56;96.82
3796;BME280;1913;50.660;7.834;2023-05-20T10:53:38;152630.72;;;18.58;94.85
3796;BME280;1913;50.660;7.834;2023-05-20T10:56:04;152787.44;;;19.22;92.12
3796;BME280;1913;50.660;7.834;2023-05-20T10:58:38;152845.53;;;19.45;87.51
3796;BME280;1913;50.660;7.834;2023-05-20T11:01:03;153088.31;;;20.43;83.66
3796;BME280;1913;50.660;7.834;2023-05-20T11:03:29;153338.81;;;21.44;69.48
3796;BME280;1913;50.660;7.834;2023-05-20T11:05:55;153326.19;;;21.39;68.32
3796;BME280;1913;50.660;7.834;2023-05-20T11:08:21;153246.44;;;21.07;64.06
3796;BME280;1913;50.660;7.834;2023-05-20T11:10:46;153179.41;;;20.80;72.53
3796;BME280;1913;50.660;7.834;2023-05-20T11:13:12;153304.59;;;21.31;66.44
3796;BME280;1913;50.660;7.834;2023-05-20T11:15:39;153259.06;;;21.12;76.38
3796;BME280;1913;50.660;7.834;2023-05-20T11:18:05;153451.44;;;21.90;71.15
3796;BME280;1913;50.660;7.834;2023-05-20T11:20:30;153493.22;;;22.07;64.10
3796;BME280;1913;50.660;7.834;2023-05-20T11:22:59;153362.88;;;21.54;63.53
3796;BME280;1913;50.660;7.834;2023-05-20T11:25:25;153475.50;;;21.99;61.66
3796;BME280;1913;50.660;7.834;2023-05-20T11:27:52;153447.66;;;21.88;58.80
3796;BME280;1913;50.660;7.834;2023-05-20T11:30:19;153403.38;;;21.70;62.90
3796;BME280;1913;50.660;7.834;2023-05-20T11:33:01;153195.84;;;20.87;62.69
3796;BME280;1913;50.660;7.834;2023-05-20T11:35:28;153149.06;;;20.68;65.91
3796;BME280;1913;50.660;7.834;2023-05-20T11:37:56;153125.03;;;20.58;70.89
3796;BME280;1913;50.660;7.834;2023-05-20T11:40:25;153031.38;;;20.20;73.58
3796;BME280;1913;50.660;7.834;2023-05-20T11:42:59;153211.03;;;20.93;69.73
3796;BME280;1913;50.660;7.834;2023-05-20T11:45:25;153245.19;;;21.07;69.61
3796;BME280;1913;50.660;7.834;2023-05-20T11:48:01;153186.97;;;20.83;65.04
3796;BME280;1913;50.660;7.834;2023-05-20T11:50:28;153178.13;;;20.79;68.32
3796;BME280;1913;50.660;7.834;2023-05-20T11:52:58;153143.97;;;20.66;73.08
3796;BME280;1913;50.660;7.834;2023-05-20T11:55:25;153230.00;;;21.00;66.55
3796;BME280;1913;50.660;7.834;2023-05-20T11:57:51;153128.78;;;20.60;69.05
3796;BME280;1913;50.660;7.834;2023-05-20T12:00:16;153065.53;;;20.34;73.82
3796;BME280;1913;50.660;7.834;2023-05-20T12:02:42;153143.97;;;20.66;69.41
3796;BME280;1913;50.660;7.834;2023-05-20T12:05:08;153013.69;;;20.13;70.35
3796;BME280;1913;50.660;7.834;2023-05-20T12:07:34;153126.28;;;20.59;72.59
3796;BME280;1913;50.660;7.834;2023-05-20T12:10:02;153179.41;;;20.80;66.04
3796;BME280;1913;50.660;7.834;2023-05-20T12:12:28;153162.94;;;20.73;63.06
3796;BME280;1913;50.660;7.834;2023-05-20T12:14:53;153417.28;;;21.76;67.41
3796;BME280;1913;50.660;7.834;2023-05-20T12:17:18;153514.75;;;22.15;58.49
3796;BME280;1913;50.660;7.834;2023-05-20T12:19:44;153588.22;;;22.45;59.24
3796;BME280;1913;50.660;7.834;2023-05-20T12:22:10;153752.81;;;23.11;54.10
3796;BME280;1913;50.660;7.834;2023-05-20T12:24:35;153590.72;;;22.46;57.02
3796;BME280;1913;50.660;7.834;2023-05-20T12:27:00;153661.63;;;22.75;54.10
3796;BME280;1913;50.660;7.834;2023-05-20T12:29:28;153335.03;;;21.43;60.66
3796;BME280;1913;50.660;7.834;2023-05-20T12:31:53;153247.69;;;21.08;59.34
3796;BME280;1913;50.660;7.834;2023-05-20T12:34:19;153102.19;;;20.49;64.62
3796;BME280;1913;50.660;7.834;2023-05-20T12:36:44;153243.94;;;21.06;66.75
3796;BME280;1913;50.660;7.834;2023-05-20T12:39:10;153189.50;;;20.84;65.02
3796;BME280;1913;50.660;7.834;2023-05-20T12:41:36;153374.25;;;21.59;63.51
3796;BME280;1913;50.660;7.834;2023-05-20T12:44:02;153374.25;;;21.59;67.70
3796;BME280;1913;50.660;7.834;2023-05-20T12:46:27;153214.81;;;20.94;63.58
3796;BME280;1913;50.660;7.834;2023-05-20T12:48:53;153323.66;;;21.38;60.89
3796;BME280;1913;50.660;7.834;2023-05-20T12:51:18;153224.91;;;20.98;62.97
3796;BME280;1913;50.660;7.834;2023-05-20T12:53:45;153298.31;;;21.28;60.95
3796;BME280;1913;50.660;7.834;2023-05-20T12:56:10;153192.06;;;20.85;64.54
3796;BME280;1913;50.660;7.834;2023-05-20T12:58:36;153224.91;;;20.98;61.66
3796;BME280;1913;50.660;7.834;2023-05-20T13:01:01;153335.03;;;21.43;63.23
3796;BME280;1913;50.660;7.834;2023-05-20T13:03:27;153286.91;;;21.23;59.50
3796;BME280;1913;50.660;7.834;2023-05-20T13:05:52;153441.31;;;21.86;62.38
3796;BME280;1913;50.660;7.834;2023-05-20T13:08:17;153417.28;;;21.76;55.77
3796;BME280;1913;50.660;7.834;2023-05-20T13:10:43;153488.13;;;22.05;55.57